Canyoncito, New Mexico
Current Conditions -  °F | °C
As of 1:53 PM on Thursday 18 Dec 2014 (Local Time) from KSAF Reporting Station
Overcast Overcast  
Wind Chill: 32°   Ceiling: 4300
Heat Index: 38°   Visibility: 10mi
Dew Point: 25°   Wind: 8mph
Humidity: 60%   Direction: 340°NNW
Pressure: 30.06"   Gusts: NA
Location:  35.6111°N, 105.774°W
Report Text: KSAF 182053Z 34007KT 10SM OVC043 03/M04 A3006 RMK AO2 SLP174 T00331039 56018
Loading
Personal Weather Stations






























Interactive Weather Map New forecast layout! Learn more

10-Day Weather Forecast

Advertisements
Track Severe Weather on mobile